Thursday, September 20, 2018, 12:42 PM EDT
Back to Local

KDYL, Doylestown Airport

Location: Doylestown, PA, United States Lat: 40.333
Local Time: 12:42 PM EDT (16:42 GMT) Lon: -75.117
Time Zone: US/Eastern Elev: 393 ft

Show me the last for .
Show Decoded

2018-09-20 11:54 METAR KDYL 201554Z AUTO 16004KT 10SM OVC021 19/16 A3024 RMK AO2 SLP237 T01940156
                 =
2018-09-20 10:54 METAR KDYL 201454Z AUTO VRB03KT 10SM BKN019 OVC023 21/16 A3023 RMK AO2 SLP234
                 T02060161 51019 =
2018-09-20 09:54 METAR KDYL 201354Z AUTO 00000KT 10SM OVC019 19/16 A3022 RMK AO2 SLP229 T01890161
                 =
2018-09-20 08:54 METAR KDYL 201254Z AUTO 00000KT 10SM OVC017 18/16 A3020 RMK AO2 SLP224 T01830161
                 =
2018-09-20 08:22 METAR KDYL 201222Z AUTO 00000KT 10SM OVC015 18/16 A3019 RMK AO2 T01830161 =
2018-09-20 07:54 METAR KDYL 201154Z AUTO 00000KT 10SM OVC011 18/17 A3018 RMK AO2 SLP216 60001
                 70001 T01780167 10200 20178 53030 =
2018-09-20 07:43 METAR KDYL 201143Z AUTO VRB03KT 10SM OVC010 18/17 A3017 RMK AO2 T01780167 =
2018-09-20 07:31 METAR KDYL 201131Z AUTO VRB04KT 8SM OVC008 18/17 A3016 RMK AO2 T01780167 =
2018-09-20 06:54 METAR KDYL 201054Z AUTO 00000KT 10SM OVC012 19/17 A3015 RMK AO2 SLP205 T01890172
                 =
2018-09-20 05:54 METAR KDYL 200954Z AUTO 16003KT 10SM OVC010 19/18 A3011 RMK AO2 RAB0856E28
                 SLP193 P0001 T01890178 =
2018-09-20 05:44 METAR KDYL 200944Z AUTO VRB03KT 10SM OVC010 19/18 A3011 RMK AO2 RAB0856E28 P0001
                 T01890178 =
2018-09-20 04:54 METAR KDYL 200854Z AUTO 00000KT 10SM BKN009 OVC013 19/19 A3009 RMK AO2 CIG
                 005V010 SLP183 T01940189 53005 =
2018-09-20 04:36 METAR KDYL 200836Z AUTO 00000KT 10SM BKN011 OVC017 20/19 A3009 RMK AO2 T02000189
                 =
2018-09-20 04:03 METAR KDYL 200803Z AUTO 00000KT 10SM BKN016 OVC028 20/19 A3008 RMK AO2 T02000189
                 =
2018-09-20 03:54 METAR KDYL 200754Z AUTO 00000KT 10SM BKN014 OVC028 20/19 A3008 RMK AO2 SLP181
                 T02000189 =
2018-09-20 03:45 METAR KDYL 200745Z AUTO 00000KT 10SM SCT012 OVC027 20/19 A3008 RMK AO2 T02000189
                 =
2018-09-20 02:54 METAR KDYL 200654Z AUTO 00000KT 10SM SCT005 BKN011 OVC017 20/19 A3007 RMK AO2
                 SLP178 T02000189 =
2018-09-20 02:52 METAR KDYL 200652Z AUTO 00000KT 10SM SCT006 BKN011 OVC018 19/19 A3007 RMK AO2 =
2018-09-20 02:41 METAR KDYL 200641Z AUTO 00000KT 10SM BKN006 BKN010 OVC016 19/19 A3007 RMK AO2
                 T01940189 =
2018-09-20 02:30 METAR KDYL 200630Z AUTO 00000KT 10SM FEW007 BKN016 19/19 A3007 RMK AO2 T01940189
                 =
2018-09-20 02:14 METAR KDYL 200614Z AUTO 00000KT 10SM BKN014 BKN037 19/18 A3007 RMK AO2 T01940183
                 =
2018-09-20 02:07 METAR KDYL 200607Z AUTO 00000KT 10SM SCT014 BKN037 19/18 A3007 RMK AO2 T01940183
                 =
2018-09-20 01:54 METAR KDYL 200554Z AUTO 00000KT 10SM SCT010 BKN014 OVC037 19/19 A3008 RMK AO2
                 SLP179 T01940189 10211 20183 51005 =
2018-09-20 01:51 METAR KDYL 200551Z AUTO 00000KT 10SM BKN010 BKN016 OVC037 19/19 A3008 RMK AO2
                 CIG 008V013 =
2018-09-20 00:54 METAR KDYL 200454Z AUTO 00000KT 10SM OVC007 19/18 A3007 RMK AO2 CIG 006V010
                 SLP175 T01940183 402890178 =
2018-09-20 00:35 METAR KDYL 200435Z AUTO 00000KT 10SM BKN007 BKN014 19/18 A3006 RMK AO2 T01940183
                 =
2018-09-20 00:12 METAR KDYL 200412Z AUTO 00000KT 10SM SCT009 BKN014 BKN021 19/18 A3006 RMK AO2
                 T01890183 =
2018-09-19 23:57 METAR KDYL 200357Z AUTO 00000KT 10SM BKN010 BKN022 19/18 A3006 RMK AO2 T01940178
                 =
2018-09-19 23:54 METAR KDYL 200354Z AUTO 00000KT 10SM SCT012 SCT022 19/18 A3006 RMK AO2 SLP175
                 T01890178 =
2018-09-19 22:54 METAR KDYL 200254Z AUTO 00000KT 10SM CLR 19/18 A3005 RMK AO2 SLP170 T01940178
                 51023 =
2018-09-19 21:54 METAR KDYL 200154Z AUTO 05003KT 10SM CLR 21/18 A3003 RMK AO2 SLP164 T02060178 =
2018-09-19 20:54 METAR KDYL 200054Z AUTO 00000KT 10SM CLR 20/18 A3000 RMK AO2 SLP157 T02000183 =
2018-09-19 19:54 METAR KDYL 192354Z AUTO 00000KT 10SM CLR 21/18 A2998 RMK AO2 SLP148 T02060183
                 10289 20206 53015 =
2018-09-19 18:54 METAR KDYL 192254Z AUTO 00000KT 10SM CLR 23/18 A2996 RMK AO2 SLP140 T02330183 =
2018-09-19 17:54 METAR KDYL 192154Z AUTO 02004KT 10SM SCT045 25/18 A2995 RMK AO2 SLP137 T02500183
                 =
2018-09-19 16:54 METAR KDYL 192054Z AUTO VRB05KT 10SM FEW045 28/18 A2993 RMK AO2 SLP132 T02780178
                 53003 =
2018-09-19 15:54 METAR KDYL 191954Z AUTO 35005KT 10SM FEW039 28/18 A2992 RMK AO2 SLP127 T02780183
                 =
2018-09-19 14:54 METAR KDYL 191854Z AUTO 34003KT 10SM FEW038 BKN120 27/18 A2993 RMK AO2 SLP129
                 T02720178 =
2018-09-19 13:54 METAR KDYL 191754Z AUTO VRB05KT 10SM CLR 28/19 A2992 RMK AO2 SLP127 T02830189
                 10289 20194 58002 =
2018-09-19 12:54 METAR KDYL 191654Z AUTO VRB04KT 10SM FEW032 SCT041 28/20 A2993 RMK AO2 SLP131
                 T02830200 =

Support USWX by starting your Amazon purchase here.